createdAt,value
2022-09-22T00:02:11.278Z,1.48
2022-09-22T00:06:19.719Z,1.50
2022-09-22T00:10:25.259Z,1.75
2022-09-22T00:14:29.128Z,1.83
2022-09-22T00:18:32.626Z,1.55
2022-09-22T00:22:35.747Z,1.25
2022-09-22T00:26:41.137Z,2.08
2022-09-22T00:30:44.681Z,1.88
2022-09-22T00:34:48.255Z,1.63
2022-09-22T00:38:51.763Z,1.98
2022-09-22T00:43:13.207Z,1.40
2022-09-22T00:47:26.245Z,1.85
2022-09-22T00:51:32.828Z,2.17
2022-09-22T00:55:42.056Z,1.67
2022-09-22T00:59:49.677Z,1.33
2022-09-22T01:03:52.931Z,2.17
2022-09-22T01:07:57.288Z,1.60
2022-09-22T01:12:01.622Z,1.73
2022-09-22T01:16:36.414Z,1.45
2022-09-22T01:21:06.850Z,2.03
2022-09-22T01:25:32.947Z,1.67
2022-09-22T01:30:02.050Z,1.50
2022-09-22T01:34:13.094Z,1.75
2022-09-22T01:38:23.201Z,2.30
2022-09-22T01:42:35.831Z,2.65
2022-09-22T01:46:43.299Z,2.40
2022-09-22T01:50:53.951Z,2.92
2022-09-22T01:55:01.126Z,2.08
2022-09-22T01:59:08.201Z,2.63
2022-09-22T02:03:15.614Z,2.17
2022-09-22T02:07:27.596Z,1.63
2022-09-22T02:11:30.580Z,1.53
2022-09-22T02:15:51.453Z,2.03
2022-09-22T02:19:54.541Z,1.98
2022-09-22T02:24:01.625Z,2.13
2022-09-22T02:28:05.968Z,2.47
2022-09-22T02:32:11.802Z,2.53
2022-09-22T02:36:30.365Z,3.00
2022-09-22T02:40:44.310Z,1.85
2022-09-22T02:44:51.057Z,2.22
2022-09-22T02:48:57.529Z,1.75
2022-09-22T02:53:05.901Z,1.83
2022-09-22T02:57:10.888Z,1.77
2022-09-22T03:01:14.563Z,1.58
2022-09-22T03:05:18.016Z,1.65
2022-09-22T03:09:21.565Z,2.40
2022-09-22T03:13:26.128Z,2.83
2022-09-22T03:17:29.607Z,1.95
2022-09-22T03:21:32.619Z,2.10
2022-09-22T03:25:36.371Z,2.10
2022-09-22T03:29:40.758Z,1.92
2022-09-22T03:33:48.145Z,2.33
2022-09-22T03:37:53.910Z,2.38
2022-09-22T03:41:57.010Z,2.05
2022-09-22T03:46:03.144Z,1.92
2022-09-22T03:50:07.424Z,2.25
2022-09-22T03:54:10.508Z,1.67
2022-09-22T03:58:13.999Z,1.75
2022-09-22T04:02:18.530Z,2.15
2022-09-22T04:06:22.161Z,1.90
2022-09-22T04:10:26.573Z,1.60
2022-09-22T04:14:30.562Z,1.40
2022-09-22T04:18:35.167Z,2.00
2022-09-22T04:22:38.698Z,2.88
2022-09-22T04:26:56.429Z,1.95
2022-09-22T04:31:05.597Z,1.92
2022-09-22T04:35:10.764Z,2.00
2022-09-22T04:39:14.242Z,2.20
2022-09-22T04:43:17.472Z,2.38
2022-09-22T04:47:20.879Z,1.92
2022-09-22T04:51:25.226Z,2.15
2022-09-22T04:55:28.902Z,1.80
2022-09-22T04:59:31.842Z,2.17
2022-09-22T05:03:38.715Z,1.77
2022-09-22T05:07:44.998Z,1.65
2022-09-22T05:11:49.097Z,1.85
2022-09-22T05:15:52.649Z,2.10
2022-09-22T05:19:56.064Z,2.05
2022-09-22T05:24:01.439Z,1.83
2022-09-22T05:28:04.530Z,2.15
2022-09-22T05:32:08.312Z,1.52
2022-09-22T05:36:11.377Z,2.92
2022-09-22T05:40:17.199Z,2.83
2022-09-22T05:44:22.031Z,3.58
2022-09-22T05:48:30.860Z,3.88
2022-09-22T05:52:34.425Z,2.05
2022-09-22T05:56:39.416Z,3.13
2022-09-22T06:00:42.901Z,2.72
2022-09-22T06:04:48.989Z,2.55
2022-09-22T06:08:53.021Z,3.05
2022-09-22T06:13:01.520Z,2.25
2022-09-22T06:17:05.342Z,2.60
2022-09-22T06:21:08.847Z,2.40
2022-09-22T06:25:11.969Z,2.88
2022-09-22T06:29:16.763Z,1.85
2022-09-22T06:33:20.341Z,2.08
2022-09-22T06:37:24.315Z,1.85
2022-09-22T06:41:27.630Z,1.48
2022-09-22T06:45:32.710Z,1.33
2022-09-22T06:49:35.727Z,1.73
2022-09-22T06:53:39.117Z,1.50
2022-09-22T06:57:42.137Z,1.25
2022-09-22T07:01:47.097Z,1.45
2022-09-22T07:05:55.195Z,1.92
2022-09-22T07:09:58.600Z,1.48
2022-09-22T07:14:03.200Z,1.58
2022-09-22T07:18:08.329Z,1.52
2022-09-22T07:22:12.969Z,1.40
2022-09-22T07:26:18.957Z,1.38
2022-09-22T07:30:22.601Z,1.60
2022-09-22T07:34:27.913Z,1.13
2022-09-22T07:38:36.434Z,1.48
2022-09-22T07:42:40.137Z,1.38
2022-09-22T07:46:43.480Z,1.52
2022-09-22T07:50:55.820Z,1.52
2022-09-22T07:54:58.904Z,1.33
2022-09-22T07:59:05.613Z,1.27
2022-09-22T08:03:09.961Z,1.48
2022-09-22T08:07:15.885Z,1.40
2022-09-22T08:11:20.312Z,1.30
2022-09-22T08:15:27.176Z,1.13
2022-09-22T08:19:30.649Z,1.55
2022-09-22T08:23:36.162Z,1.95
2022-09-22T08:27:39.504Z,1.20
2022-09-22T08:31:46.285Z,1.73
2022-09-22T08:35:54.324Z,1.10
2022-09-22T08:39:59.514Z,1.65
2022-09-22T08:44:15.877Z,1.75
2022-09-22T08:48:42.118Z,1.90
2022-09-22T08:52:49.595Z,1.35
2022-09-22T08:57:19.951Z,1.48
2022-09-22T09:01:32.768Z,1.10
2022-09-22T09:10:07.097Z,1.20
2022-09-22T09:14:28.534Z,1.65
2022-09-22T09:18:35.510Z,1.52
2022-09-22T09:22:45.027Z,1.35
2022-09-22T09:26:52.977Z,1.42
2022-09-22T09:31:08.453Z,1.77
2022-09-22T09:35:15.653Z,1.52
2022-09-22T09:39:25.729Z,1.65
2022-09-22T09:43:30.363Z,1.60
2022-09-22T09:47:59.139Z,1.20
2022-09-22T09:52:05.737Z,1.40
2022-09-22T09:56:21.503Z,1.25
2022-09-22T10:00:34.690Z,1.58
2022-09-22T10:04:39.777Z,1.50
2022-09-22T10:08:45.594Z,1.52
2022-09-22T10:12:49.025Z,2.03
2022-09-22T10:16:53.388Z,1.55
2022-09-22T10:21:07.270Z,1.77
2022-09-22T10:25:22.219Z,1.08
2022-09-22T10:29:28.063Z,1.25
2022-09-22T10:33:31.994Z,1.77
2022-09-22T10:37:37.091Z,1.70
2022-09-22T10:41:41.907Z,1.60
2022-09-22T10:45:54.742Z,1.20
2022-09-22T10:50:21.865Z,1.52
2022-09-22T10:54:44.057Z,1.42
2022-09-22T10:59:07.166Z,1.27
2022-09-22T11:03:44.783Z,1.00
2022-09-22T11:08:17.153Z,1.45
2022-09-22T11:12:33.423Z,0.93
2022-09-22T11:17:07.694Z,0.75
2022-09-22T11:21:23.800Z,1.40
2022-09-22T11:25:43.587Z,1.08
2022-09-22T11:30:13.160Z,1.17
2022-09-22T11:34:48.049Z,0.80
2022-09-22T11:39:07.708Z,0.70
2022-09-22T11:43:31.778Z,0.70
2022-09-22T11:47:48.472Z,0.50
2022-09-22T11:52:06.496Z,0.70
2022-09-22T11:56:24.547Z,0.90
2022-09-22T12:00:35.649Z,0.70
2022-09-22T12:04:43.762Z,0.60
2022-09-22T12:12:58.874Z,0.70
2022-09-22T12:17:07.644Z,0.77
2022-09-22T12:21:29.849Z,1.00
2022-09-22T12:25:49.039Z,0.70
2022-09-22T12:29:58.610Z,0.80
2022-09-22T12:34:03.167Z,0.85
2022-09-22T12:38:08.402Z,0.90
2022-09-22T12:42:21.759Z,0.50
2022-09-22T12:46:30.551Z,0.73
2022-09-22T12:50:38.611Z,0.45
2022-09-22T12:54:43.704Z,0.77
2022-09-22T12:58:47.180Z,0.57
2022-09-22T13:02:51.346Z,1.10
2022-09-22T13:07:03.448Z,0.70
2022-09-22T13:11:10.118Z,0.55
2022-09-22T13:15:21.439Z,0.40
2022-09-22T13:19:24.512Z,0.40
2022-09-22T13:23:28.625Z,0.80
2022-09-22T13:27:33.740Z,0.50
2022-09-22T13:31:38.706Z,0.60
2022-09-22T13:35:43.729Z,0.80
2022-09-22T13:39:50.340Z,0.70
2022-09-22T13:43:58.188Z,0.70
2022-09-22T13:48:08.708Z,0.57
2022-09-22T13:52:18.031Z,0.82
2022-09-22T13:56:24.037Z,0.70
2022-09-22T14:00:41.349Z,0.52
2022-09-22T14:04:55.471Z,0.43
2022-09-22T14:09:00.310Z,0.60
2022-09-22T14:13:03.324Z,0.57
2022-09-22T14:17:14.498Z,0.63
2022-09-22T14:21:18.925Z,0.60
2022-09-22T14:25:23.626Z,0.75
2022-09-22T14:29:29.362Z,0.52
2022-09-22T14:33:35.696Z,0.43
2022-09-22T14:37:43.509Z,0.30
2022-09-22T14:41:53.277Z,0.45
2022-09-22T14:45:59.256Z,0.50
2022-09-22T14:50:20.541Z,0.85
2022-09-22T14:54:23.927Z,0.30
2022-09-22T14:58:29.779Z,0.80
2022-09-22T15:02:37.658Z,0.60
2022-09-22T15:06:44.399Z,0.65
2022-09-22T15:10:58.031Z,0.50
2022-09-22T15:15:02.103Z,0.60
2022-09-22T15:19:05.448Z,0.40
2022-09-22T15:23:16.486Z,0.52
2022-09-22T15:27:21.232Z,0.90
2022-09-22T15:31:27.376Z,0.60
2022-09-22T15:35:37.514Z,0.82
2022-09-22T15:39:42.726Z,0.90
2022-09-22T15:43:46.194Z,0.63
2022-09-22T15:47:53.867Z,0.95
2022-09-22T15:51:56.925Z,0.40
2022-09-22T15:56:05.750Z,2.03
2022-09-22T16:00:15.926Z,3.08
2022-09-22T16:04:20.723Z,2.95
2022-09-22T16:08:31.446Z,2.50
2022-09-22T16:12:36.032Z,2.20
2022-09-22T16:16:40.299Z,2.22
2022-09-22T16:20:43.645Z,1.60
2022-09-22T16:24:47.122Z,2.00
2022-09-22T16:28:52.183Z,1.85
2022-09-22T16:32:55.613Z,1.75
2022-09-22T16:36:59.137Z,2.17
2022-09-22T16:41:03.440Z,1.90
2022-09-22T16:45:08.768Z,2.13
2022-09-22T16:49:14.359Z,2.33
2022-09-22T16:53:18.022Z,1.45
2022-09-22T16:57:21.690Z,1.27
2022-09-22T17:01:26.993Z,1.88
2022-09-22T17:05:30.572Z,1.70
2022-09-22T17:09:34.319Z,1.98
2022-09-22T17:13:37.311Z,1.95
2022-09-22T17:17:43.212Z,2.22
2022-09-22T17:21:48.793Z,3.03
2022-09-22T17:25:51.811Z,1.90
2022-09-22T17:29:55.194Z,2.28
2022-09-22T17:34:03.160Z,1.77
2022-09-22T17:38:06.369Z,1.70
2022-09-22T17:42:10.704Z,2.25
2022-09-22T17:46:15.321Z,2.67
2022-09-22T17:50:37.329Z,1.45
2022-09-22T17:54:59.930Z,2.05
2022-09-22T17:59:03.459Z,2.17
2022-09-22T18:03:06.938Z,1.83
2022-09-22T18:07:15.944Z,1.63
2022-09-22T18:11:19.594Z,1.50
2022-09-22T18:15:23.347Z,2.30
2022-09-22T18:19:29.330Z,2.28
2022-09-22T18:23:34.133Z,1.52
2022-09-22T18:27:37.934Z,1.40
2022-09-22T18:31:41.217Z,1.55
2022-09-22T18:35:46.771Z,2.83
2022-09-22T18:39:52.360Z,2.00
2022-09-22T18:43:55.974Z,1.98
2022-09-22T18:47:59.977Z,1.45
2022-09-22T18:52:03.974Z,1.15
2022-09-22T18:56:12.872Z,1.33
2022-09-22T19:00:17.591Z,1.30
2022-09-22T19:04:22.246Z,1.42
2022-09-22T19:08:28.164Z,1.30
2022-09-22T19:12:36.006Z,1.30
2022-09-22T19:16:42.764Z,1.20
2022-09-22T19:20:46.952Z,1.08
2022-09-22T19:24:51.031Z,1.52
2022-09-22T19:28:55.981Z,0.85
2022-09-22T19:32:59.481Z,1.23
2022-09-22T19:37:02.562Z,1.67
2022-09-22T19:41:06.420Z,2.40
2022-09-22T19:45:11.462Z,1.70
2022-09-22T19:49:16.063Z,2.40
2022-09-22T19:53:19.818Z,2.05
2022-09-22T19:57:22.893Z,1.63
2022-09-22T20:01:32.793Z,2.28
2022-09-22T20:05:38.288Z,1.88
2022-09-22T20:09:41.301Z,2.90
2022-09-22T20:14:02.096Z,2.65
2022-09-22T20:18:07.063Z,2.42
2022-09-22T20:22:21.393Z,1.90
2022-09-22T20:26:25.764Z,2.75
2022-09-22T20:30:29.230Z,2.28
2022-09-22T20:34:33.726Z,2.65
2022-09-22T20:38:37.177Z,2.83
2022-09-22T20:42:40.270Z,2.90
2022-09-22T20:46:44.294Z,2.83
2022-09-22T20:50:57.005Z,2.83
2022-09-22T20:54:59.960Z,2.25
2022-09-22T20:59:03.938Z,2.53
2022-09-22T21:03:07.728Z,2.20
2022-09-22T21:07:12.610Z,2.58
2022-09-22T21:11:17.419Z,3.45
2022-09-22T21:15:22.027Z,2.42
2022-09-22T21:19:25.355Z,2.70
2022-09-22T21:23:30.127Z,2.60
2022-09-22T21:27:33.171Z,2.80
2022-09-22T21:31:37.852Z,2.55
2022-09-22T21:39:52.279Z,2.78
2022-09-22T21:43:56.830Z,3.22
2022-09-22T21:48:00.578Z,3.05
2022-09-22T21:52:03.637Z,2.80
2022-09-22T21:56:11.078Z,3.10
2022-09-22T22:00:15.198Z,2.80
2022-09-22T22:04:18.680Z,2.20
2022-09-22T22:08:22.186Z,3.15
2022-09-22T22:12:27.635Z,3.20
2022-09-22T22:16:32.842Z,2.40
2022-09-22T22:20:36.678Z,3.30
2022-09-22T22:24:43.062Z,4.18
2022-09-22T22:28:48.626Z,3.63
2022-09-22T22:32:52.078Z,3.40
2022-09-22T22:36:55.883Z,3.00
2022-09-22T22:41:03.945Z,3.40
2022-09-22T22:45:09.251Z,4.15
2022-09-22T22:49:12.753Z,4.85
2022-09-22T22:53:16.498Z,3.60
2022-09-22T22:57:20.020Z,3.78
2022-09-22T23:01:26.076Z,3.65
2022-09-22T23:05:30.242Z,2.50
2022-09-22T23:09:33.786Z,3.95
2022-09-22T23:13:36.784Z,3.88
2022-09-22T23:17:41.624Z,3.90
2022-09-22T23:21:45.108Z,3.15
2022-09-22T23:25:50.293Z,3.20
2022-09-22T23:29:54.195Z,3.90
2022-09-22T23:33:59.194Z,4.82
2022-09-22T23:38:02.365Z,3.55
2022-09-22T23:42:06.129Z,3.30
2022-09-22T23:46:09.620Z,4.57
2022-09-22T23:50:14.094Z,4.28
2022-09-22T23:54:17.488Z,4.22
2022-09-22T23:58:20.995Z,3.80
